Blackhead, Ireland
Current Conditions -  °F | °C
As of 10:00 PM on Saturday 25 Oct 2014 (Local Time) from EINN Reporting Station
Broken Clouds Broken Clouds  
Wind Chill: 55°   Ceiling: 4300
Heat Index: 55°   Visibility: 6mi
Dew Point: 45°   Wind: 17mph
Humidity: 67%   Direction: 210°SSW
Pressure: 29.91"   Gusts: NA
Location:  53.17°N, 9.33°W
Report Text: EINN 252200Z 21015KT 9999 FEW020 BKN043 13/07 Q1013 NOSIG
Loading
Personal Weather Stations






























Interactive Weather Map
Tropical Storm Tracking
New forecast layout! Learn more

10-Day Weather Forecast

Advertisements
Track Severe Weather on mobile